sensor_id;sensor_type;location;lat;lon;timestamp;temperature;humidity
9984;DHT22;16737;50.932;6.780;2023-03-24T00:00:43;16.10;91.40
9984;DHT22;16737;50.932;6.780;2023-03-24T00:03:10;16.10;91.40
9984;DHT22;16737;50.932;6.780;2023-03-24T00:05:38;16.10;91.50
9984;DHT22;16737;50.932;6.780;2023-03-24T00:08:05;16.10;91.50
9984;DHT22;16737;50.932;6.780;2023-03-24T00:10:32;16.10;91.50
9984;DHT22;16737;50.932;6.780;2023-03-24T00:13:12;16.10;91.50
9984;DHT22;16737;50.932;6.780;2023-03-24T00:15:39;16.10;91.60
9984;DHT22;16737;50.932;6.780;2023-03-24T00:18:06;16.10;91.50
9984;DHT22;16737;50.932;6.780;2023-03-24T00:20:35;16.10;91.60
9984;DHT22;16737;50.932;6.780;2023-03-24T00:23:06;16.10;91.60
9984;DHT22;16737;50.932;6.780;2023-03-24T00:25:34;16.10;91.70
9984;DHT22;16737;50.932;6.780;2023-03-24T00:28:03;16.10;91.70
9984;DHT22;16737;50.932;6.780;2023-03-24T00:30:32;16.10;91.70
9984;DHT22;16737;50.932;6.780;2023-03-24T00:33:01;16.10;91.70
9984;DHT22;16737;50.932;6.780;2023-03-24T00:35:29;16.20;91.80
9984;DHT22;16737;50.932;6.780;2023-03-24T00:37:56;16.20;91.70
9984;DHT22;16737;50.932;6.780;2023-03-24T00:40:23;16.20;91.80
9984;DHT22;16737;50.932;6.780;2023-03-24T00:42:50;16.20;91.80
9984;DHT22;16737;50.932;6.780;2023-03-24T00:45:20;16.20;91.80
9984;DHT22;16737;50.932;6.780;2023-03-24T00:47:48;16.20;91.90
9984;DHT22;16737;50.932;6.780;2023-03-24T00:50:19;16.20;91.70
9984;DHT22;16737;50.932;6.780;2023-03-24T00:52:50;16.20;91.80
9984;DHT22;16737;50.932;6.780;2023-03-24T00:55:18;16.20;91.80
9984;DHT22;16737;50.932;6.780;2023-03-24T00:57:46;16.30;91.90
9984;DHT22;16737;50.932;6.780;2023-03-24T01:00:16;16.20;91.80
9984;DHT22;16737;50.932;6.780;2023-03-24T01:02:48;16.30;91.90
9984;DHT22;16737;50.932;6.780;2023-03-24T01:05:18;16.30;91.90
9984;DHT22;16737;50.932;6.780;2023-03-24T01:07:45;16.30;92.00
9984;DHT22;16737;50.932;6.780;2023-03-24T01:10:17;16.30;91.90
9984;DHT22;16737;50.932;6.780;2023-03-24T01:12:46;16.30;92.00
9984;DHT22;16737;50.932;6.780;2023-03-24T01:15:16;16.30;92.00
9984;DHT22;16737;50.932;6.780;2023-03-24T01:17:47;16.30;92.10
9984;DHT22;16737;50.932;6.780;2023-03-24T01:20:15;16.30;92.10
9984;DHT22;16737;50.932;6.780;2023-03-24T01:22:42;16.30;92.10
9984;DHT22;16737;50.932;6.780;2023-03-24T01:25:11;16.30;92.10
9984;DHT22;16737;50.932;6.780;2023-03-24T01:27:41;16.30;92.10
9984;DHT22;16737;50.932;6.780;2023-03-24T01:30:11;16.30;92.10
9984;DHT22;16737;50.932;6.780;2023-03-24T01:32:41;16.40;92.30
9984;DHT22;16737;50.932;6.780;2023-03-24T01:35:09;16.40;92.20
9984;DHT22;16737;50.932;6.780;2023-03-24T01:37:37;16.40;92.20
9984;DHT22;16737;50.932;6.780;2023-03-24T01:40:06;16.40;92.30
9984;DHT22;16737;50.932;6.780;2023-03-24T01:42:35;16.40;92.30
9984;DHT22;16737;50.932;6.780;2023-03-24T01:48:12;16.50;92.70
9984;DHT22;16737;50.932;6.780;2023-03-24T01:50:45;16.50;92.50
9984;DHT22;16737;50.932;6.780;2023-03-24T01:53:15;16.50;92.40
9984;DHT22;16737;50.932;6.780;2023-03-24T01:55:44;16.50;92.40
9984;DHT22;16737;50.932;6.780;2023-03-24T01:58:14;16.50;92.50
9984;DHT22;16737;50.932;6.780;2023-03-24T02:00:42;16.50;92.40
9984;DHT22;16737;50.932;6.780;2023-03-24T02:03:12;16.50;92.40
9984;DHT22;16737;50.932;6.780;2023-03-24T02:05:44;16.50;92.50
9984;DHT22;16737;50.932;6.780;2023-03-24T02:08:17;16.60;92.50
9984;DHT22;16737;50.932;6.780;2023-03-24T02:10:48;16.60;92.60
9984;DHT22;16737;50.932;6.780;2023-03-24T02:13:19;16.60;92.60
9984;DHT22;16737;50.932;6.780;2023-03-24T02:15:54;16.60;92.50
9984;DHT22;16737;50.932;6.780;2023-03-24T02:18:36;16.60;92.70
9984;DHT22;16737;50.932;6.780;2023-03-24T02:21:41;16.60;92.80
9984;DHT22;16737;50.932;6.780;2023-03-24T02:24:49;16.60;92.90
9984;DHT22;16737;50.932;6.780;2023-03-24T02:27:53;16.70;93.20
9984;DHT22;16737;50.932;6.780;2023-03-24T02:30:59;16.70;92.80
9984;DHT22;16737;50.932;6.780;2023-03-24T02:34:29;16.70;92.80
9984;DHT22;16737;50.932;6.780;2023-03-24T02:37:28;16.70;92.80
9984;DHT22;16737;50.932;6.780;2023-03-24T02:40:35;16.70;92.80
9984;DHT22;16737;50.932;6.780;2023-03-24T02:43:16;16.70;92.80
9984;DHT22;16737;50.932;6.780;2023-03-24T02:45:59;16.70;92.70
9984;DHT22;16737;50.932;6.780;2023-03-24T02:48:46;16.80;92.70
9984;DHT22;16737;50.932;6.780;2023-03-24T02:51:26;16.80;92.70
9984;DHT22;16737;50.932;6.780;2023-03-24T02:54:05;16.80;92.60
9984;DHT22;16737;50.932;6.780;2023-03-24T02:56:39;16.80;92.60
9984;DHT22;16737;50.932;6.780;2023-03-24T02:59:16;16.80;92.60
9984;DHT22;16737;50.932;6.780;2023-03-24T03:01:50;16.80;92.60
9984;DHT22;16737;50.932;6.780;2023-03-24T03:04:27;16.90;92.60
9984;DHT22;16737;50.932;6.780;2023-03-24T03:07:01;16.90;92.60
9984;DHT22;16737;50.932;6.780;2023-03-24T03:09:35;16.90;92.60
9984;DHT22;16737;50.932;6.780;2023-03-24T03:12:08;16.90;92.60
9984;DHT22;16737;50.932;6.780;2023-03-24T03:14:40;16.90;92.60
9984;DHT22;16737;50.932;6.780;2023-03-24T03:17:13;16.90;92.90
9984;DHT22;16737;50.932;6.780;2023-03-24T03:19:47;16.90;92.60
9984;DHT22;16737;50.932;6.780;2023-03-24T03:22:20;16.90;92.70
9984;DHT22;16737;50.932;6.780;2023-03-24T03:24:52;17.00;92.70
9984;DHT22;16737;50.932;6.780;2023-03-24T03:27:27;16.90;92.70
9984;DHT22;16737;50.932;6.780;2023-03-24T03:30:02;17.00;92.80
9984;DHT22;16737;50.932;6.780;2023-03-24T03:32:36;17.00;92.90
9984;DHT22;16737;50.932;6.780;2023-03-24T03:35:11;16.90;92.80
9984;DHT22;16737;50.932;6.780;2023-03-24T03:37:48;17.00;92.80
9984;DHT22;16737;50.932;6.780;2023-03-24T03:40:21;16.90;92.80
9984;DHT22;16737;50.932;6.780;2023-03-24T03:42:54;16.90;92.80
9984;DHT22;16737;50.932;6.780;2023-03-24T03:45:21;17.00;92.80
9984;DHT22;16737;50.932;6.780;2023-03-24T03:47:49;17.00;92.80
9984;DHT22;16737;50.932;6.780;2023-03-24T03:50:17;17.00;92.80
9984;DHT22;16737;50.932;6.780;2023-03-24T03:52:44;17.00;92.80
9984;DHT22;16737;50.932;6.780;2023-03-24T03:55:12;17.00;92.80
9984;DHT22;16737;50.932;6.780;2023-03-24T03:57:40;17.00;92.90
9984;DHT22;16737;50.932;6.780;2023-03-24T04:00:13;17.00;92.80
9984;DHT22;16737;50.932;6.780;2023-03-24T04:02:54;17.00;92.90
9984;DHT22;16737;50.932;6.780;2023-03-24T04:05:34;17.00;93.00
9984;DHT22;16737;50.932;6.780;2023-03-24T04:08:13;17.00;92.80
9984;DHT22;16737;50.932;6.780;2023-03-24T04:14:45;17.00;93.30
9984;DHT22;16737;50.932;6.780;2023-03-24T04:17:45;17.00;93.00
9984;DHT22;16737;50.932;6.780;2023-03-24T04:20:33;17.00;92.80
9984;DHT22;16737;50.932;6.780;2023-03-24T04:23:18;17.00;92.80
9984;DHT22;16737;50.932;6.780;2023-03-24T04:26:00;17.00;92.70
9984;DHT22;16737;50.932;6.780;2023-03-24T04:28:40;17.00;92.70
9984;DHT22;16737;50.932;6.780;2023-03-24T04:31:17;17.00;92.70
9984;DHT22;16737;50.932;6.780;2023-03-24T04:33:50;17.00;92.60
9984;DHT22;16737;50.932;6.780;2023-03-24T04:36:26;17.00;92.70
9984;DHT22;16737;50.932;6.780;2023-03-24T04:39:08;17.10;92.80
9984;DHT22;16737;50.932;6.780;2023-03-24T04:41:39;17.10;92.80
9984;DHT22;16737;50.932;6.780;2023-03-24T04:44:09;17.10;92.80
9984;DHT22;16737;50.932;6.780;2023-03-24T04:46:37;17.10;92.80
9984;DHT22;16737;50.932;6.780;2023-03-24T04:49:07;17.00;92.60
9984;DHT22;16737;50.932;6.780;2023-03-24T04:51:35;17.00;92.60
9984;DHT22;16737;50.932;6.780;2023-03-24T04:54:06;16.90;92.30
9984;DHT22;16737;50.932;6.780;2023-03-24T04:56:38;16.70;92.10
9984;DHT22;16737;50.932;6.780;2023-03-24T04:59:10;16.60;92.20
9984;DHT22;16737;50.932;6.780;2023-03-24T05:01:38;16.40;92.20
9984;DHT22;16737;50.932;6.780;2023-03-24T05:04:07;16.30;92.30
9984;DHT22;16737;50.932;6.780;2023-03-24T05:06:34;16.20;92.30
9984;DHT22;16737;50.932;6.780;2023-03-24T05:09:01;16.10;92.40
9984;DHT22;16737;50.932;6.780;2023-03-24T05:11:28;16.00;92.50
9984;DHT22;16737;50.932;6.780;2023-03-24T05:13:55;15.90;92.60
9984;DHT22;16737;50.932;6.780;2023-03-24T05:16:22;15.80;92.60
9984;DHT22;16737;50.932;6.780;2023-03-24T05:18:49;15.80;92.70
9984;DHT22;16737;50.932;6.780;2023-03-24T05:21:18;15.70;92.70
9984;DHT22;16737;50.932;6.780;2023-03-24T05:23:45;15.60;92.80
9984;DHT22;16737;50.932;6.780;2023-03-24T05:26:13;15.60;92.80
9984;DHT22;16737;50.932;6.780;2023-03-24T05:28:39;15.50;92.80
9984;DHT22;16737;50.932;6.780;2023-03-24T05:31:06;15.40;92.80
9984;DHT22;16737;50.932;6.780;2023-03-24T05:33:33;15.40;92.90
9984;DHT22;16737;50.932;6.780;2023-03-24T05:36:00;15.30;92.90
9984;DHT22;16737;50.932;6.780;2023-03-24T05:38:29;15.30;92.90
9984;DHT22;16737;50.932;6.780;2023-03-24T05:40:57;15.20;93.00
9984;DHT22;16737;50.932;6.780;2023-03-24T05:43:24;15.20;93.00
9984;DHT22;16737;50.932;6.780;2023-03-24T05:45:52;15.10;93.00
9984;DHT22;16737;50.932;6.780;2023-03-24T05:48:20;15.10;93.00
9984;DHT22;16737;50.932;6.780;2023-03-24T05:50:47;15.00;93.00
9984;DHT22;16737;50.932;6.780;2023-03-24T05:53:14;15.00;93.00
9984;DHT22;16737;50.932;6.780;2023-03-24T05:55:44;14.90;93.00
9984;DHT22;16737;50.932;6.780;2023-03-24T05:58:11;14.90;92.90
9984;DHT22;16737;50.932;6.780;2023-03-24T06:00:40;14.90;92.70
9984;DHT22;16737;50.932;6.780;2023-03-24T06:03:07;14.80;92.50
9984;DHT22;16737;50.932;6.780;2023-03-24T06:05:34;14.80;92.40
9984;DHT22;16737;50.932;6.780;2023-03-24T06:08:01;14.70;92.30
9984;DHT22;16737;50.932;6.780;2023-03-24T06:10:28;14.60;92.20
9984;DHT22;16737;50.932;6.780;2023-03-24T06:12:57;14.50;92.10
9984;DHT22;16737;50.932;6.780;2023-03-24T06:15:24;14.50;92.20
9984;DHT22;16737;50.932;6.780;2023-03-24T06:17:52;14.40;92.10
9984;DHT22;16737;50.932;6.780;2023-03-24T06:20:20;14.30;92.10
9984;DHT22;16737;50.932;6.780;2023-03-24T06:22:47;14.30;92.10
9984;DHT22;16737;50.932;6.780;2023-03-24T06:25:16;14.20;92.10
9984;DHT22;16737;50.932;6.780;2023-03-24T06:27:50;14.10;92.20
9984;DHT22;16737;50.932;6.780;2023-03-24T06:30:18;14.10;92.20
9984;DHT22;16737;50.932;6.780;2023-03-24T06:32:46;14.10;92.20
9984;DHT22;16737;50.932;6.780;2023-03-24T06:35:13;14.00;92.10
9984;DHT22;16737;50.932;6.780;2023-03-24T06:37:40;14.00;92.10
9984;DHT22;16737;50.932;6.780;2023-03-24T06:40:08;14.00;92.20
9984;DHT22;16737;50.932;6.780;2023-03-24T06:42:38;13.90;92.10
9984;DHT22;16737;50.932;6.780;2023-03-24T06:45:06;13.90;92.10
9984;DHT22;16737;50.932;6.780;2023-03-24T06:47:35;13.80;92.10
9984;DHT22;16737;50.932;6.780;2023-03-24T06:50:03;13.80;92.10
9984;DHT22;16737;50.932;6.780;2023-03-24T06:52:31;13.80;92.10
9984;DHT22;16737;50.932;6.780;2023-03-24T06:54:58;13.70;92.10
9984;DHT22;16737;50.932;6.780;2023-03-24T06:57:25;13.70;92.20
9984;DHT22;16737;50.932;6.780;2023-03-24T06:59:53;13.70;92.20
9984;DHT22;16737;50.932;6.780;2023-03-24T07:02:20;13.70;92.30
9984;DHT22;16737;50.932;6.780;2023-03-24T07:04:49;13.70;92.30
9984;DHT22;16737;50.932;6.780;2023-03-24T07:07:18;13.60;92.30
9984;DHT22;16737;50.932;6.780;2023-03-24T07:09:47;13.60;92.30
9984;DHT22;16737;50.932;6.780;2023-03-24T07:12:14;13.60;92.30
9984;DHT22;16737;50.932;6.780;2023-03-24T07:14:41;13.60;92.40
9984;DHT22;16737;50.932;6.780;2023-03-24T07:17:08;13.60;92.40
9984;DHT22;16737;50.932;6.780;2023-03-24T07:19:35;13.60;92.50
9984;DHT22;16737;50.932;6.780;2023-03-24T07:22:04;13.60;92.50
9984;DHT22;16737;50.932;6.780;2023-03-24T07:24:33;13.60;92.60
9984;DHT22;16737;50.932;6.780;2023-03-24T07:27:00;13.60;92.50
9984;DHT22;16737;50.932;6.780;2023-03-24T07:29:27;13.60;92.50
9984;DHT22;16737;50.932;6.780;2023-03-24T07:31:55;13.60;92.60
9984;DHT22;16737;50.932;6.780;2023-03-24T07:34:25;13.60;92.60
9984;DHT22;16737;50.932;6.780;2023-03-24T07:36:52;13.60;92.60
9984;DHT22;16737;50.932;6.780;2023-03-24T07:39:21;13.60;92.70
9984;DHT22;16737;50.932;6.780;2023-03-24T07:41:48;13.60;92.80
9984;DHT22;16737;50.932;6.780;2023-03-24T07:44:15;13.60;92.70
9984;DHT22;16737;50.932;6.780;2023-03-24T07:46:42;13.60;92.70
9984;DHT22;16737;50.932;6.780;2023-03-24T07:49:09;13.60;92.70
9984;DHT22;16737;50.932;6.780;2023-03-24T07:51:36;13.70;92.70
9984;DHT22;16737;50.932;6.780;2023-03-24T07:54:03;13.70;92.70
9984;DHT22;16737;50.932;6.780;2023-03-24T07:56:32;13.70;92.70
9984;DHT22;16737;50.932;6.780;2023-03-24T07:58:59;13.70;92.70
9984;DHT22;16737;50.932;6.780;2023-03-24T08:01:26;13.70;93.00
9984;DHT22;16737;50.932;6.780;2023-03-24T08:03:54;13.80;92.80
9984;DHT22;16737;50.932;6.780;2023-03-24T08:06:21;13.80;92.80
9984;DHT22;16737;50.932;6.780;2023-03-24T08:08:48;13.80;92.80
9984;DHT22;16737;50.932;6.780;2023-03-24T08:11:15;13.90;92.90
9984;DHT22;16737;50.932;6.780;2023-03-24T08:13:43;13.90;92.90
9984;DHT22;16737;50.932;6.780;2023-03-24T08:16:10;14.00;93.30
9984;DHT22;16737;50.932;6.780;2023-03-24T08:18:37;14.00;92.90
9984;DHT22;16737;50.932;6.780;2023-03-24T08:21:05;14.00;92.80
9984;DHT22;16737;50.932;6.780;2023-03-24T08:23:32;14.10;92.80
9984;DHT22;16737;50.932;6.780;2023-03-24T08:26:01;14.10;92.70
9984;DHT22;16737;50.932;6.780;2023-03-24T08:28:28;14.10;92.80
9984;DHT22;16737;50.932;6.780;2023-03-24T08:30:56;14.20;92.80
9984;DHT22;16737;50.932;6.780;2023-03-24T08:33:23;14.30;92.90
9984;DHT22;16737;50.932;6.780;2023-03-24T08:35:50;14.40;92.90
9984;DHT22;16737;50.932;6.780;2023-03-24T08:38:22;14.40;92.90
9984;DHT22;16737;50.932;6.780;2023-03-24T08:40:55;14.50;92.80
9984;DHT22;16737;50.932;6.780;2023-03-24T08:43:26;14.60;92.80
9984;DHT22;16737;50.932;6.780;2023-03-24T08:45:56;14.70;92.80
9984;DHT22;16737;50.932;6.780;2023-03-24T08:48:24;14.80;92.90
9984;DHT22;16737;50.932;6.780;2023-03-24T08:50:52;14.90;92.70
9984;DHT22;16737;50.932;6.780;2023-03-24T08:53:19;14.90;92.50
9984;DHT22;16737;50.932;6.780;2023-03-24T08:55:46;14.90;92.40
9984;DHT22;16737;50.932;6.780;2023-03-24T08:58:15;15.00;92.30
9984;DHT22;16737;50.932;6.780;2023-03-24T09:00:44;15.00;92.20
9984;DHT22;16737;50.932;6.780;2023-03-24T09:03:16;15.00;92.20
9984;DHT22;16737;50.932;6.780;2023-03-24T09:05:46;15.00;92.20
9984;DHT22;16737;50.932;6.780;2023-03-24T09:08:16;15.00;92.20
9984;DHT22;16737;50.932;6.780;2023-03-24T09:10:44;15.00;92.20
9984;DHT22;16737;50.932;6.780;2023-03-24T09:13:12;15.10;92.20
9984;DHT22;16737;50.932;6.780;2023-03-24T09:15:44;15.10;92.10
9984;DHT22;16737;50.932;6.780;2023-03-24T09:18:14;15.20;92.20
9984;DHT22;16737;50.932;6.780;2023-03-24T09:20:41;15.30;92.30
9984;DHT22;16737;50.932;6.780;2023-03-24T09:23:08;15.30;92.30
9984;DHT22;16737;50.932;6.780;2023-03-24T09:25:36;15.40;92.40
9984;DHT22;16737;50.932;6.780;2023-03-24T09:28:03;15.50;92.30
9984;DHT22;16737;50.932;6.780;2023-03-24T09:30:32;15.60;92.20
9984;DHT22;16737;50.932;6.780;2023-03-24T09:32:59;15.70;92.10
9984;DHT22;16737;50.932;6.780;2023-03-24T09:35:28;15.70;91.80
9984;DHT22;16737;50.932;6.780;2023-03-24T09:37:55;15.70;91.50
9984;DHT22;16737;50.932;6.780;2023-03-24T09:40:25;15.80;91.60
9984;DHT22;16737;50.932;6.780;2023-03-24T09:42:56;15.80;91.50
9984;DHT22;16737;50.932;6.780;2023-03-24T09:45:29;15.90;91.50
9984;DHT22;16737;50.932;6.780;2023-03-24T09:48:03;15.90;91.40
9984;DHT22;16737;50.932;6.780;2023-03-24T09:50:39;15.90;91.30
9984;DHT22;16737;50.932;6.780;2023-03-24T09:53:20;16.00;91.50
9984;DHT22;16737;50.932;6.780;2023-03-24T09:55:56;16.00;91.00
9984;DHT22;16737;50.932;6.780;2023-03-24T09:58:28;16.00;91.10
9984;DHT22;16737;50.932;6.780;2023-03-24T10:00:58;16.00;91.00
9984;DHT22;16737;50.932;6.780;2023-03-24T10:03:25;16.00;91.10
9984;DHT22;16737;50.932;6.780;2023-03-24T10:05:58;16.00;91.10
9984;DHT22;16737;50.932;6.780;2023-03-24T10:08:34;16.00;90.90
9984;DHT22;16737;50.932;6.780;2023-03-24T10:11:04;16.00;91.10
9984;DHT22;16737;50.932;6.780;2023-03-24T10:13:44;16.10;91.10
9984;DHT22;16737;50.932;6.780;2023-03-24T10:16:24;16.10;91.00
9984;DHT22;16737;50.932;6.780;2023-03-24T10:19:01;16.20;91.00
9984;DHT22;16737;50.932;6.780;2023-03-24T10:21:40;16.30;91.00
9984;DHT22;16737;50.932;6.780;2023-03-24T10:24:22;16.30;90.90
9984;DHT22;16737;50.932;6.780;2023-03-24T10:27:01;16.40;90.80
9984;DHT22;16737;50.932;6.780;2023-03-24T10:29:35;16.40;90.70
9984;DHT22;16737;50.932;6.780;2023-03-24T10:32:08;16.50;90.80
9984;DHT22;16737;50.932;6.780;2023-03-24T10:34:43;16.50;90.60
9984;DHT22;16737;50.932;6.780;2023-03-24T10:37:15;16.60;90.50
9984;DHT22;16737;50.932;6.780;2023-03-24T10:39:42;16.60;90.40
9984;DHT22;16737;50.932;6.780;2023-03-24T10:42:13;16.60;90.40
9984;DHT22;16737;50.932;6.780;2023-03-24T10:44:44;16.70;90.40
9984;DHT22;16737;50.932;6.780;2023-03-24T10:47:13;16.70;90.50
9984;DHT22;16737;50.932;6.780;2023-03-24T10:49:52;16.70;90.40
9984;DHT22;16737;50.932;6.780;2023-03-24T10:52:22;16.80;90.20
9984;DHT22;16737;50.932;6.780;2023-03-24T10:54:54;16.90;90.30
9984;DHT22;16737;50.932;6.780;2023-03-24T10:57:24;16.90;90.20
9984;DHT22;16737;50.932;6.780;2023-03-24T10:59:54;17.00;90.30
9984;DHT22;16737;50.932;6.780;2023-03-24T11:02:25;17.10;90.20
9984;DHT22;16737;50.932;6.780;2023-03-24T11:04:57;17.10;90.20
9984;DHT22;16737;50.932;6.780;2023-03-24T11:07:32;17.20;90.00
9984;DHT22;16737;50.932;6.780;2023-03-24T11:10:05;17.30;89.60
9984;DHT22;16737;50.932;6.780;2023-03-24T11:12:41;17.30;89.60
9984;DHT22;16737;50.932;6.780;2023-03-24T11:15:17;17.40;89.90
9984;DHT22;16737;50.932;6.780;2023-03-24T11:17:46;17.50;89.10
9984;DHT22;16737;50.932;6.780;2023-03-24T11:20:20;17.50;89.90
9984;DHT22;16737;50.932;6.780;2023-03-24T11:23:03;17.70;90.00
9984;DHT22;16737;50.932;6.780;2023-03-24T11:25:37;17.80;89.20
9984;DHT22;16737;50.932;6.780;2023-03-24T11:28:07;17.90;89.40
9984;DHT22;16737;50.932;6.780;2023-03-24T11:30:44;17.90;89.10
9984;DHT22;16737;50.932;6.780;2023-03-24T11:33:18;18.00;88.50
9984;DHT22;16737;50.932;6.780;2023-03-24T11:35:48;18.00;88.40
9984;DHT22;16737;50.932;6.780;2023-03-24T11:38:18;18.00;88.50
9984;DHT22;16737;50.932;6.780;2023-03-24T11:40:54;18.00;87.50
9984;DHT22;16737;50.932;6.780;2023-03-24T11:43:24;18.10;88.40
9984;DHT22;16737;50.932;6.780;2023-03-24T11:45:57;18.10;88.40
9984;DHT22;16737;50.932;6.780;2023-03-24T11:48:30;18.10;87.60
9984;DHT22;16737;50.932;6.780;2023-03-24T11:51:04;18.10;87.60
9984;DHT22;16737;50.932;6.780;2023-03-24T11:53:43;18.20;87.90
9984;DHT22;16737;50.932;6.780;2023-03-24T11:56:18;18.20;87.40
9984;DHT22;16737;50.932;6.780;2023-03-24T11:58:55;18.30;87.60
9984;DHT22;16737;50.932;6.780;2023-03-24T12:01:30;18.30;87.40
9984;DHT22;16737;50.932;6.780;2023-03-24T12:04:22;18.40;87.10
9984;DHT22;16737;50.932;6.780;2023-03-24T12:07:08;18.40;86.80
9984;DHT22;16737;50.932;6.780;2023-03-24T12:10:01;18.40;86.10
9984;DHT22;16737;50.932;6.780;2023-03-24T12:12:44;18.40;86.20
9984;DHT22;16737;50.932;6.780;2023-03-24T12:15:29;18.40;85.40
9984;DHT22;16737;50.932;6.780;2023-03-24T12:18:14;18.40;85.30
9984;DHT22;16737;50.932;6.780;2023-03-24T12:20:53;18.40;85.00
9984;DHT22;16737;50.932;6.780;2023-03-24T12:23:31;18.40;85.40
9984;DHT22;16737;50.932;6.780;2023-03-24T12:26:14;18.40;85.60
9984;DHT22;16737;50.932;6.780;2023-03-24T12:28:50;18.50;85.40
9984;DHT22;16737;50.932;6.780;2023-03-24T12:31:52;18.60;84.90
9984;DHT22;16737;50.932;6.780;2023-03-24T12:34:42;18.70;84.20
9984;DHT22;16737;50.932;6.780;2023-03-24T12:37:35;18.70;84.60
9984;DHT22;16737;50.932;6.780;2023-03-24T12:40:32;18.70;84.90
9984;DHT22;16737;50.932;6.780;2023-03-24T12:43:29;18.80;83.70
9984;DHT22;16737;50.932;6.780;2023-03-24T12:46:07;18.80;84.10
9984;DHT22;16737;50.932;6.780;2023-03-24T12:48:57;18.80;83.90
9984;DHT22;16737;50.932;6.780;2023-03-24T12:51:44;18.80;82.30
9984;DHT22;16737;50.932;6.780;2023-03-24T12:54:25;18.90;82.50
9984;DHT22;16737;50.932;6.780;2023-03-24T12:56:59;18.90;82.70
9984;DHT22;16737;50.932;6.780;2023-03-24T12:59:35;19.00;82.60
9984;DHT22;16737;50.932;6.780;2023-03-24T13:02:11;19.00;81.90
9984;DHT22;16737;50.932;6.780;2023-03-24T13:04:48;19.10;80.60
9984;DHT22;16737;50.932;6.780;2023-03-24T13:07:21;19.20;81.30
9984;DHT22;16737;50.932;6.780;2023-03-24T13:09:55;19.20;81.20
9984;DHT22;16737;50.932;6.780;2023-03-24T13:12:31;19.30;81.20
9984;DHT22;16737;50.932;6.780;2023-03-24T13:15:05;19.40;79.60
9984;DHT22;16737;50.932;6.780;2023-03-24T13:17:46;19.40;79.00
9984;DHT22;16737;50.932;6.780;2023-03-24T13:20:23;19.40;79.30
9984;DHT22;16737;50.932;6.780;2023-03-24T13:22:53;19.40;78.40
9984;DHT22;16737;50.932;6.780;2023-03-24T13:25:29;19.40;79.20
9984;DHT22;16737;50.932;6.780;2023-03-24T13:28:17;19.40;77.90
9984;DHT22;16737;50.932;6.780;2023-03-24T13:30:50;19.40;77.90
9984;DHT22;16737;50.932;6.780;2023-03-24T13:33:19;19.40;78.60
9984;DHT22;16737;50.932;6.780;2023-03-24T13:36:03;19.40;78.70
9984;DHT22;16737;50.932;6.780;2023-03-24T13:38:42;19.40;78.40
9984;DHT22;16737;50.932;6.780;2023-03-24T13:41:17;19.30;77.60
9984;DHT22;16737;50.932;6.780;2023-03-24T13:43:50;19.30;76.60
9984;DHT22;16737;50.932;6.780;2023-03-24T13:46:25;19.20;76.90
9984;DHT22;16737;50.932;6.780;2023-03-24T13:48:54;19.20;77.10
9984;DHT22;16737;50.932;6.780;2023-03-24T13:51:26;19.10;77.20
9984;DHT22;16737;50.932;6.780;2023-03-24T13:53:57;19.10;77.10
9984;DHT22;16737;50.932;6.780;2023-03-24T13:56:30;19.10;77.40
9984;DHT22;16737;50.932;6.780;2023-03-24T14:05:12;18.90;76.10
9984;DHT22;16737;50.932;6.780;2023-03-24T14:08:14;18.80;77.20
9984;DHT22;16737;50.932;6.780;2023-03-24T14:10:46;18.70;77.00
9984;DHT22;16737;50.932;6.780;2023-03-24T14:13:20;18.50;76.90
9984;DHT22;16737;50.932;6.780;2023-03-24T14:15:49;18.40;76.70
9984;DHT22;16737;50.932;6.780;2023-03-24T14:18:42;18.20;77.10
9984;DHT22;16737;50.932;6.780;2023-03-24T14:21:09;18.10;77.00
9984;DHT22;16737;50.932;6.780;2023-03-24T14:23:39;18.00;78.00
9984;DHT22;16737;50.932;6.780;2023-03-24T14:26:14;17.90;78.10
9984;DHT22;16737;50.932;6.780;2023-03-24T14:28:55;17.80;78.00
9984;DHT22;16737;50.932;6.780;2023-03-24T14:31:26;17.70;78.40
9984;DHT22;16737;50.932;6.780;2023-03-24T14:34:08;17.60;78.10
9984;DHT22;16737;50.932;6.780;2023-03-24T14:36:41;17.60;77.80
9984;DHT22;16737;50.932;6.780;2023-03-24T14:39:19;17.50;78.40
9984;DHT22;16737;50.932;6.780;2023-03-24T14:41:53;17.40;78.00
9984;DHT22;16737;50.932;6.780;2023-03-24T14:44:51;17.30;78.60
9984;DHT22;16737;50.932;6.780;2023-03-24T14:47:20;17.30;79.20
9984;DHT22;16737;50.932;6.780;2023-03-24T14:49:51;17.30;79.80
9984;DHT22;16737;50.932;6.780;2023-03-24T14:52:22;17.30;80.00
9984;DHT22;16737;50.932;6.780;2023-03-24T14:54:54;17.30;80.00
9984;DHT22;16737;50.932;6.780;2023-03-24T14:57:25;17.40;80.30
9984;DHT22;16737;50.932;6.780;2023-03-24T14:59:57;17.40;80.50
9984;DHT22;16737;50.932;6.780;2023-03-24T15:02:39;17.50;80.50
9984;DHT22;16737;50.932;6.780;2023-03-24T15:05:29;17.60;80.40
9984;DHT22;16737;50.932;6.780;2023-03-24T15:08:12;17.70;79.70
9984;DHT22;16737;50.932;6.780;2023-03-24T15:10:48;17.80;80.20
9984;DHT22;16737;50.932;6.780;2023-03-24T15:13:34;17.90;80.70
9984;DHT22;16737;50.932;6.780;2023-03-24T15:16:16;17.90;80.20
9984;DHT22;16737;50.932;6.780;2023-03-24T15:18:47;18.00;79.70
9984;DHT22;16737;50.932;6.780;2023-03-24T15:21:23;18.10;79.80
9984;DHT22;16737;50.932;6.780;2023-03-24T15:23:53;18.10;79.40
9984;DHT22;16737;50.932;6.780;2023-03-24T15:26:22;18.10;79.60
9984;DHT22;16737;50.932;6.780;2023-03-24T15:28:58;18.10;79.60
9984;DHT22;16737;50.932;6.780;2023-03-24T15:31:27;18.10;79.00
9984;DHT22;16737;50.932;6.780;2023-03-24T15:34:03;18.20;79.60
9984;DHT22;16737;50.932;6.780;2023-03-24T15:36:38;18.20;78.90
9984;DHT22;16737;50.932;6.780;2023-03-24T15:39:16;18.10;78.60
9984;DHT22;16737;50.932;6.780;2023-03-24T15:41:49;18.10;78.40
9984;DHT22;16737;50.932;6.780;2023-03-24T15:44:18;18.10;78.60
9984;DHT22;16737;50.932;6.780;2023-03-24T15:46:47;18.10;79.20
9984;DHT22;16737;50.932;6.780;2023-03-24T15:49:23;18.10;79.20
9984;DHT22;16737;50.932;6.780;2023-03-24T15:51:56;18.00;78.90
9984;DHT22;16737;50.932;6.780;2023-03-24T15:54:26;18.00;79.00
9984;DHT22;16737;50.932;6.780;2023-03-24T15:56:59;18.00;79.20
9984;DHT22;16737;50.932;6.780;2023-03-24T15:59:35;18.00;78.80
9984;DHT22;16737;50.932;6.780;2023-03-24T16:02:04;18.00;78.90
9984;DHT22;16737;50.932;6.780;2023-03-24T16:04:37;17.90;79.20
9984;DHT22;16737;50.932;6.780;2023-03-24T16:07:20;17.90;79.70
9984;DHT22;16737;50.932;6.780;2023-03-24T16:09:58;17.80;80.10
9984;DHT22;16737;50.932;6.780;2023-03-24T16:12:35;17.70;79.70
9984;DHT22;16737;50.932;6.780;2023-03-24T16:15:03;17.60;79.70
9984;DHT22;16737;50.932;6.780;2023-03-24T16:17:31;17.40;79.50
9984;DHT22;16737;50.932;6.780;2023-03-24T16:19:58;17.30;79.50
9984;DHT22;16737;50.932;6.780;2023-03-24T16:22:26;17.20;79.60
9984;DHT22;16737;50.932;6.780;2023-03-24T16:24:54;17.00;79.60
9984;DHT22;16737;50.932;6.780;2023-03-24T16:27:21;16.90;79.60
9984;DHT22;16737;50.932;6.780;2023-03-24T16:29:48;16.70;79.60
9984;DHT22;16737;50.932;6.780;2023-03-24T16:32:14;16.60;80.00
9984;DHT22;16737;50.932;6.780;2023-03-24T16:34:42;16.40;80.20